sensor_id;sensor_type;location;lat;lon;timestamp;P1;durP1;ratioP1;P2;durP2;ratioP2
23561;SDS011;11959;49.418;8.728;2022-12-18T00:01:01;59.97;;;26.60;;
23561;SDS011;11959;49.418;8.728;2022-12-18T00:03:31;55.20;;;25.63;;
23561;SDS011;11959;49.418;8.728;2022-12-18T00:05:58;59.13;;;26.55;;
23561;SDS011;11959;49.418;8.728;2022-12-18T00:08:23;48.00;;;23.20;;
23561;SDS011;11959;49.418;8.728;2022-12-18T00:10:49;47.60;;;24.13;;
23561;SDS011;11959;49.418;8.728;2022-12-18T00:13:15;48.08;;;23.45;;
23561;SDS011;11959;49.418;8.728;2022-12-18T00:15:40;42.55;;;21.48;;
23561;SDS011;11959;49.418;8.728;2022-12-18T00:18:06;44.90;;;22.23;;
23561;SDS011;11959;49.418;8.728;2022-12-18T00:20:36;44.33;;;22.65;;
23561;SDS011;11959;49.418;8.728;2022-12-18T00:23:03;43.53;;;21.98;;
23561;SDS011;11959;49.418;8.728;2022-12-18T00:25:29;40.95;;;21.75;;
23561;SDS011;11959;49.418;8.728;2022-12-18T00:28:01;41.80;;;21.33;;
23561;SDS011;11959;49.418;8.728;2022-12-18T00:30:28;46.30;;;23.20;;
23561;SDS011;11959;49.418;8.728;2022-12-18T00:32:53;44.42;;;21.98;;
23561;SDS011;11959;49.418;8.728;2022-12-18T00:35:19;43.75;;;21.77;;
23561;SDS011;11959;49.418;8.728;2022-12-18T00:37:44;45.97;;;23.77;;
23561;SDS011;11959;49.418;8.728;2022-12-18T00:40:10;48.40;;;22.52;;
23561;SDS011;11959;49.418;8.728;2022-12-18T00:42:36;50.00;;;22.92;;
23561;SDS011;11959;49.418;8.728;2022-12-18T00:45:20;53.92;;;25.55;;
23561;SDS011;11959;49.418;8.728;2022-12-18T00:47:47;58.47;;;26.70;;
23561;SDS011;11959;49.418;8.728;2022-12-18T00:50:13;45.15;;;23.45;;
23561;SDS011;11959;49.418;8.728;2022-12-18T00:52:38;45.22;;;22.63;;
23561;SDS011;11959;49.418;8.728;2022-12-18T00:55:04;38.78;;;19.13;;
23561;SDS011;11959;49.418;8.728;2022-12-18T00:57:30;42.38;;;19.95;;
23561;SDS011;11959;49.418;8.728;2022-12-18T00:59:55;32.67;;;18.17;;
23561;SDS011;11959;49.418;8.728;2022-12-18T01:02:21;38.75;;;19.30;;
23561;SDS011;11959;49.418;8.728;2022-12-18T01:04:47;33.42;;;18.88;;
23561;SDS011;11959;49.418;8.728;2022-12-18T01:07:12;39.28;;;19.85;;
23561;SDS011;11959;49.418;8.728;2022-12-18T01:09:38;33.92;;;19.00;;
23561;SDS011;11959;49.418;8.728;2022-12-18T01:12:03;46.13;;;22.33;;
23561;SDS011;11959;49.418;8.728;2022-12-18T01:14:29;45.95;;;22.75;;
23561;SDS011;11959;49.418;8.728;2022-12-18T01:16:55;48.65;;;23.55;;
23561;SDS011;11959;49.418;8.728;2022-12-18T01:19:21;45.15;;;22.98;;
23561;SDS011;11959;49.418;8.728;2022-12-18T01:21:49;48.25;;;22.48;;
23561;SDS011;11959;49.418;8.728;2022-12-18T01:24:14;45.72;;;21.80;;
23561;SDS011;11959;49.418;8.728;2022-12-18T01:26:40;44.65;;;20.65;;
23561;SDS011;11959;49.418;8.728;2022-12-18T01:29:06;37.60;;;18.55;;
23561;SDS011;11959;49.418;8.728;2022-12-18T01:31:32;33.15;;;16.50;;
23561;SDS011;11959;49.418;8.728;2022-12-18T01:34:02;35.35;;;18.33;;
23561;SDS011;11959;49.418;8.728;2022-12-18T01:36:33;31.95;;;17.77;;
23561;SDS011;11959;49.418;8.728;2022-12-18T01:39:02;34.53;;;17.47;;
23561;SDS011;11959;49.418;8.728;2022-12-18T01:41:30;37.85;;;19.42;;
23561;SDS011;11959;49.418;8.728;2022-12-18T01:49:51;34.63;;;17.45;;
23561;SDS011;11959;49.418;8.728;2022-12-18T01:52:17;33.75;;;18.08;;
23561;SDS011;11959;49.418;8.728;2022-12-18T01:54:45;33.40;;;17.52;;
23561;SDS011;11959;49.418;8.728;2022-12-18T01:57:12;33.90;;;18.47;;
23561;SDS011;11959;49.418;8.728;2022-12-18T01:59:38;40.90;;;20.63;;
23561;SDS011;11959;49.418;8.728;2022-12-18T02:02:07;49.03;;;22.83;;
23561;SDS011;11959;49.418;8.728;2022-12-18T02:04:33;41.85;;;19.70;;
23561;SDS011;11959;49.418;8.728;2022-12-18T02:10:12;32.97;;;17.90;;
23561;SDS011;11959;49.418;8.728;2022-12-18T02:12:50;31.30;;;16.55;;
23561;SDS011;11959;49.418;8.728;2022-12-18T02:15:29;33.83;;;16.23;;
23561;SDS011;11959;49.418;8.728;2022-12-18T02:18:13;33.13;;;15.68;;
23561;SDS011;11959;49.418;8.728;2022-12-18T02:20:47;30.85;;;16.40;;
23561;SDS011;11959;49.418;8.728;2022-12-18T02:26:11;36.50;;;17.48;;
23561;SDS011;11959;49.418;8.728;2022-12-18T02:29:22;33.17;;;16.42;;
23561;SDS011;11959;49.418;8.728;2022-12-18T02:31:56;29.55;;;15.55;;
23561;SDS011;11959;49.418;8.728;2022-12-18T02:34:26;31.80;;;16.65;;
23561;SDS011;11959;49.418;8.728;2022-12-18T02:36:55;26.52;;;15.20;;
23561;SDS011;11959;49.418;8.728;2022-12-18T02:39:23;34.17;;;16.42;;
23561;SDS011;11959;49.418;8.728;2022-12-18T02:41:51;29.55;;;15.90;;
23561;SDS011;11959;49.418;8.728;2022-12-18T02:44:17;27.95;;;14.07;;
23561;SDS011;11959;49.418;8.728;2022-12-18T02:46:49;29.10;;;15.35;;
23561;SDS011;11959;49.418;8.728;2022-12-18T02:49:22;28.63;;;16.08;;
23561;SDS011;11959;49.418;8.728;2022-12-18T02:55:05;30.88;;;16.05;;
23561;SDS011;11959;49.418;8.728;2022-12-18T02:57:54;31.42;;;15.60;;
23561;SDS011;11959;49.418;8.728;2022-12-18T03:00:58;30.98;;;16.02;;
23561;SDS011;11959;49.418;8.728;2022-12-18T03:03:35;31.58;;;15.32;;
23561;SDS011;11959;49.418;8.728;2022-12-18T03:08:58;29.85;;;14.82;;
23561;SDS011;11959;49.418;8.728;2022-12-18T03:11:28;27.88;;;14.52;;
23561;SDS011;11959;49.418;8.728;2022-12-18T03:14:16;33.75;;;16.08;;
23561;SDS011;11959;49.418;8.728;2022-12-18T03:16:45;32.45;;;15.98;;
23561;SDS011;11959;49.418;8.728;2022-12-18T03:19:15;30.30;;;15.90;;
23561;SDS011;11959;49.418;8.728;2022-12-18T03:21:47;30.75;;;16.40;;
23561;SDS011;11959;49.418;8.728;2022-12-18T03:24:17;34.13;;;16.25;;
23561;SDS011;11959;49.418;8.728;2022-12-18T03:26:45;50.13;;;22.80;;
23561;SDS011;11959;49.418;8.728;2022-12-18T03:29:16;50.85;;;22.98;;
23561;SDS011;11959;49.418;8.728;2022-12-18T03:31:55;51.40;;;22.55;;
23561;SDS011;11959;49.418;8.728;2022-12-18T03:34:29;48.75;;;22.60;;
23561;SDS011;11959;49.418;8.728;2022-12-18T03:36:57;52.70;;;22.75;;
23561;SDS011;11959;49.418;8.728;2022-12-18T03:39:23;50.58;;;21.70;;
23561;SDS011;11959;49.418;8.728;2022-12-18T03:44:26;37.20;;;18.38;;
23561;SDS011;11959;49.418;8.728;2022-12-18T03:52:20;29.25;;;15.77;;
23561;SDS011;11959;49.418;8.728;2022-12-18T03:54:51;30.85;;;15.77;;
23561;SDS011;11959;49.418;8.728;2022-12-18T03:57:20;31.03;;;15.10;;
23561;SDS011;11959;49.418;8.728;2022-12-18T03:59:51;28.42;;;15.27;;
23561;SDS011;11959;49.418;8.728;2022-12-18T04:02:23;37.38;;;16.88;;
23561;SDS011;11959;49.418;8.728;2022-12-18T04:04:51;36.63;;;15.80;;
23561;SDS011;11959;49.418;8.728;2022-12-18T04:07:20;33.22;;;17.20;;
23561;SDS011;11959;49.418;8.728;2022-12-18T04:09:46;34.35;;;16.88;;
23561;SDS011;11959;49.418;8.728;2022-12-18T04:12:14;36.45;;;16.42;;
23561;SDS011;11959;49.418;8.728;2022-12-18T04:14:40;32.92;;;17.23;;
23561;SDS011;11959;49.418;8.728;2022-12-18T04:17:05;48.95;;;22.00;;
23561;SDS011;11959;49.418;8.728;2022-12-18T04:19:31;51.17;;;22.63;;
23561;SDS011;11959;49.418;8.728;2022-12-18T04:21:57;55.67;;;25.23;;
23561;SDS011;11959;49.418;8.728;2022-12-18T04:24:23;56.55;;;25.60;;
23561;SDS011;11959;49.418;8.728;2022-12-18T04:26:48;54.20;;;24.13;;
23561;SDS011;11959;49.418;8.728;2022-12-18T04:29:14;57.33;;;26.48;;
23561;SDS011;11959;49.418;8.728;2022-12-18T04:31:40;53.08;;;24.67;;
23561;SDS011;11959;49.418;8.728;2022-12-18T04:34:05;55.20;;;23.65;;
23561;SDS011;11959;49.418;8.728;2022-12-18T04:36:31;58.13;;;24.65;;
23561;SDS011;11959;49.418;8.728;2022-12-18T04:38:57;51.88;;;23.17;;
23561;SDS011;11959;49.418;8.728;2022-12-18T04:41:22;44.47;;;20.40;;
23561;SDS011;11959;49.418;8.728;2022-12-18T04:43:48;36.65;;;16.85;;
23561;SDS011;11959;49.418;8.728;2022-12-18T04:46:14;30.95;;;15.52;;
23561;SDS011;11959;49.418;8.728;2022-12-18T04:48:39;31.25;;;15.85;;
23561;SDS011;11959;49.418;8.728;2022-12-18T04:51:05;32.75;;;15.98;;
23561;SDS011;11959;49.418;8.728;2022-12-18T04:53:31;35.77;;;17.70;;
23561;SDS011;11959;49.418;8.728;2022-12-18T04:56:10;34.60;;;16.67;;
23561;SDS011;11959;49.418;8.728;2022-12-18T04:58:38;41.53;;;18.60;;
23561;SDS011;11959;49.418;8.728;2022-12-18T05:01:06;39.10;;;17.83;;
23561;SDS011;11959;49.418;8.728;2022-12-18T05:03:32;35.33;;;17.38;;
23561;SDS011;11959;49.418;8.728;2022-12-18T05:05:59;35.75;;;17.45;;
23561;SDS011;11959;49.418;8.728;2022-12-18T05:08:26;32.67;;;15.80;;
23561;SDS011;11959;49.418;8.728;2022-12-18T05:11:08;37.67;;;18.35;;
23561;SDS011;11959;49.418;8.728;2022-12-18T05:13:36;36.63;;;17.40;;
23561;SDS011;11959;49.418;8.728;2022-12-18T05:16:02;37.20;;;17.67;;
23561;SDS011;11959;49.418;8.728;2022-12-18T05:18:29;35.10;;;17.58;;
23561;SDS011;11959;49.418;8.728;2022-12-18T05:20:55;37.92;;;18.27;;
23561;SDS011;11959;49.418;8.728;2022-12-18T05:23:21;52.60;;;24.55;;
23561;SDS011;11959;49.418;8.728;2022-12-18T05:25:55;44.78;;;22.48;;
23561;SDS011;11959;49.418;8.728;2022-12-18T05:28:26;47.42;;;22.38;;
23561;SDS011;11959;49.418;8.728;2022-12-18T05:30:54;50.22;;;22.63;;
23561;SDS011;11959;49.418;8.728;2022-12-18T05:33:22;43.65;;;20.48;;
23561;SDS011;11959;49.418;8.728;2022-12-18T05:35:54;39.47;;;18.30;;
23561;SDS011;11959;49.418;8.728;2022-12-18T05:38:21;38.20;;;18.80;;
23561;SDS011;11959;49.418;8.728;2022-12-18T05:40:48;39.08;;;17.70;;
23561;SDS011;11959;49.418;8.728;2022-12-18T05:43:14;36.95;;;19.23;;
23561;SDS011;11959;49.418;8.728;2022-12-18T05:45:41;40.72;;;19.52;;
23561;SDS011;11959;49.418;8.728;2022-12-18T05:48:07;39.85;;;19.77;;
23561;SDS011;11959;49.418;8.728;2022-12-18T05:50:34;39.10;;;18.88;;
23561;SDS011;11959;49.418;8.728;2022-12-18T05:53:01;42.33;;;19.70;;
23561;SDS011;11959;49.418;8.728;2022-12-18T05:55:27;41.55;;;20.77;;
23561;SDS011;11959;49.418;8.728;2022-12-18T05:57:53;42.95;;;20.95;;
23561;SDS011;11959;49.418;8.728;2022-12-18T06:00:18;41.42;;;21.27;;
23561;SDS011;11959;49.418;8.728;2022-12-18T06:02:47;45.13;;;21.38;;
23561;SDS011;11959;49.418;8.728;2022-12-18T06:05:13;45.88;;;22.80;;
23561;SDS011;11959;49.418;8.728;2022-12-18T06:07:38;44.58;;;22.13;;
23561;SDS011;11959;49.418;8.728;2022-12-18T06:10:04;53.08;;;24.33;;
23561;SDS011;11959;49.418;8.728;2022-12-18T06:12:30;43.83;;;22.35;;
23561;SDS011;11959;49.418;8.728;2022-12-18T06:14:58;45.50;;;23.02;;
23561;SDS011;11959;49.418;8.728;2022-12-18T06:17:27;48.08;;;24.17;;
23561;SDS011;11959;49.418;8.728;2022-12-18T06:19:55;47.80;;;24.20;;
23561;SDS011;11959;49.418;8.728;2022-12-18T06:22:21;46.10;;;23.15;;
23561;SDS011;11959;49.418;8.728;2022-12-18T06:24:47;45.25;;;21.85;;
23561;SDS011;11959;49.418;8.728;2022-12-18T06:27:13;46.83;;;21.90;;
23561;SDS011;11959;49.418;8.728;2022-12-18T06:29:39;45.63;;;22.73;;
23561;SDS011;11959;49.418;8.728;2022-12-18T06:32:04;46.72;;;22.55;;
23561;SDS011;11959;49.418;8.728;2022-12-18T06:34:30;45.05;;;22.40;;
23561;SDS011;11959;49.418;8.728;2022-12-18T06:36:56;48.83;;;23.55;;
23561;SDS011;11959;49.418;8.728;2022-12-18T06:39:21;45.25;;;22.38;;
23561;SDS011;11959;49.418;8.728;2022-12-18T06:41:47;44.63;;;21.95;;
23561;SDS011;11959;49.418;8.728;2022-12-18T06:44:13;47.83;;;23.00;;
23561;SDS011;11959;49.418;8.728;2022-12-18T06:46:38;46.38;;;23.48;;
23561;SDS011;11959;49.418;8.728;2022-12-18T06:49:04;46.50;;;22.70;;
23561;SDS011;11959;49.418;8.728;2022-12-18T06:51:30;45.15;;;23.23;;
23561;SDS011;11959;49.418;8.728;2022-12-18T06:53:55;47.35;;;23.38;;
23561;SDS011;11959;49.418;8.728;2022-12-18T06:56:21;44.38;;;22.80;;
23561;SDS011;11959;49.418;8.728;2022-12-18T06:58:50;47.90;;;23.42;;
23561;SDS011;11959;49.418;8.728;2022-12-18T07:01:16;49.70;;;24.48;;
23561;SDS011;11959;49.418;8.728;2022-12-18T07:03:42;48.75;;;23.83;;
23561;SDS011;11959;49.418;8.728;2022-12-18T07:06:14;51.22;;;24.27;;
23561;SDS011;11959;49.418;8.728;2022-12-18T07:08:42;47.20;;;22.77;;
23561;SDS011;11959;49.418;8.728;2022-12-18T07:11:08;50.30;;;23.85;;
23561;SDS011;11959;49.418;8.728;2022-12-18T07:13:34;43.85;;;22.30;;
23561;SDS011;11959;49.418;8.728;2022-12-18T07:16:07;48.40;;;23.58;;
23561;SDS011;11959;49.418;8.728;2022-12-18T07:18:34;47.53;;;22.45;;
23561;SDS011;11959;49.418;8.728;2022-12-18T07:21:03;50.53;;;23.05;;
23561;SDS011;11959;49.418;8.728;2022-12-18T07:23:31;47.40;;;22.55;;
23561;SDS011;11959;49.418;8.728;2022-12-18T07:26:00;47.78;;;22.52;;
23561;SDS011;11959;49.418;8.728;2022-12-18T07:28:30;48.55;;;23.73;;
23561;SDS011;11959;49.418;8.728;2022-12-18T07:30:56;50.35;;;24.42;;
23561;SDS011;11959;49.418;8.728;2022-12-18T07:33:22;46.65;;;22.83;;
23561;SDS011;11959;49.418;8.728;2022-12-18T07:35:47;51.25;;;23.15;;
23561;SDS011;11959;49.418;8.728;2022-12-18T07:38:13;46.95;;;22.50;;
23561;SDS011;11959;49.418;8.728;2022-12-18T07:40:39;49.42;;;23.02;;
23561;SDS011;11959;49.418;8.728;2022-12-18T07:43:04;48.30;;;22.20;;
23561;SDS011;11959;49.418;8.728;2022-12-18T07:45:30;47.88;;;23.13;;
23561;SDS011;11959;49.418;8.728;2022-12-18T07:47:55;45.78;;;22.10;;
23561;SDS011;11959;49.418;8.728;2022-12-18T07:50:21;50.33;;;22.35;;
23561;SDS011;11959;49.418;8.728;2022-12-18T07:52:47;50.08;;;21.80;;
23561;SDS011;11959;49.418;8.728;2022-12-18T07:55:12;47.05;;;22.70;;
23561;SDS011;11959;49.418;8.728;2022-12-18T07:57:38;44.13;;;22.10;;
23561;SDS011;11959;49.418;8.728;2022-12-18T08:00:04;49.35;;;23.17;;
23561;SDS011;11959;49.418;8.728;2022-12-18T08:02:30;47.13;;;23.48;;
23561;SDS011;11959;49.418;8.728;2022-12-18T08:04:56;44.92;;;22.63;;
23561;SDS011;11959;49.418;8.728;2022-12-18T08:07:23;46.63;;;22.23;;
23561;SDS011;11959;49.418;8.728;2022-12-18T08:09:48;49.08;;;24.08;;
23561;SDS011;11959;49.418;8.728;2022-12-18T08:12:14;54.42;;;23.48;;
23561;SDS011;11959;49.418;8.728;2022-12-18T08:14:40;46.90;;;22.98;;
23561;SDS011;11959;49.418;8.728;2022-12-18T08:17:05;54.92;;;26.27;;
23561;SDS011;11959;49.418;8.728;2022-12-18T08:19:31;50.42;;;23.63;;
23561;SDS011;11959;49.418;8.728;2022-12-18T08:21:57;66.30;;;28.92;;
23561;SDS011;11959;49.418;8.728;2022-12-18T08:24:23;160.77;;;66.93;;
23561;SDS011;11959;49.418;8.728;2022-12-18T08:26:48;71.95;;;32.30;;
23561;SDS011;11959;49.418;8.728;2022-12-18T08:29:14;67.90;;;33.88;;
23561;SDS011;11959;49.418;8.728;2022-12-18T08:31:40;51.75;;;25.02;;
23561;SDS011;11959;49.418;8.728;2022-12-18T08:34:05;40.80;;;19.65;;
23561;SDS011;11959;49.418;8.728;2022-12-18T08:36:31;51.55;;;23.88;;
23561;SDS011;11959;49.418;8.728;2022-12-18T08:38:56;46.92;;;22.52;;
23561;SDS011;11959;49.418;8.728;2022-12-18T08:41:22;45.25;;;22.10;;
23561;SDS011;11959;49.418;8.728;2022-12-18T08:43:48;46.10;;;21.95;;
23561;SDS011;11959;49.418;8.728;2022-12-18T08:46:40;46.80;;;22.92;;
23561;SDS011;11959;49.418;8.728;2022-12-18T08:49:07;50.45;;;21.33;;
23561;SDS011;11959;49.418;8.728;2022-12-18T08:51:34;43.88;;;19.50;;
23561;SDS011;11959;49.418;8.728;2022-12-18T08:54:01;49.08;;;21.85;;
23561;SDS011;11959;49.418;8.728;2022-12-18T08:56:27;42.42;;;20.17;;
23561;SDS011;11959;49.418;8.728;2022-12-18T08:58:53;114.68;;;50.85;;
23561;SDS011;11959;49.418;8.728;2022-12-18T09:01:20;76.63;;;35.22;;
23561;SDS011;11959;49.418;8.728;2022-12-18T09:03:46;53.22;;;25.52;;
23561;SDS011;11959;49.418;8.728;2022-12-18T09:06:16;77.75;;;34.38;;
23561;SDS011;11959;49.418;8.728;2022-12-18T09:08:43;59.97;;;29.08;;
23561;SDS011;11959;49.418;8.728;2022-12-18T09:11:13;53.47;;;24.50;;
23561;SDS011;11959;49.418;8.728;2022-12-18T09:13:50;47.65;;;22.38;;
23561;SDS011;11959;49.418;8.728;2022-12-18T09:16:16;46.13;;;21.38;;
23561;SDS011;11959;49.418;8.728;2022-12-18T09:18:42;45.10;;;22.60;;
23561;SDS011;11959;49.418;8.728;2022-12-18T09:21:18;45.40;;;20.87;;
23561;SDS011;11959;49.418;8.728;2022-12-18T09:23:49;49.58;;;20.95;;
23561;SDS011;11959;49.418;8.728;2022-12-18T09:26:16;47.85;;;20.52;;
23561;SDS011;11959;49.418;8.728;2022-12-18T09:28:42;40.03;;;21.00;;
23561;SDS011;11959;49.418;8.728;2022-12-18T09:31:10;44.30;;;19.58;;
23561;SDS011;11959;49.418;8.728;2022-12-18T09:33:37;48.80;;;21.88;;
23561;SDS011;11959;49.418;8.728;2022-12-18T09:36:03;48.85;;;21.40;;
23561;SDS011;11959;49.418;8.728;2022-12-18T09:38:30;44.72;;;19.92;;
23561;SDS011;11959;49.418;8.728;2022-12-18T09:40:58;41.50;;;19.02;;
23561;SDS011;11959;49.418;8.728;2022-12-18T09:43:29;47.35;;;20.63;;
23561;SDS011;11959;49.418;8.728;2022-12-18T09:46:10;44.03;;;20.20;;
23561;SDS011;11959;49.418;8.728;2022-12-18T09:48:44;44.40;;;20.48;;
23561;SDS011;11959;49.418;8.728;2022-12-18T09:51:15;43.92;;;20.88;;
23561;SDS011;11959;49.418;8.728;2022-12-18T09:53:55;40.10;;;19.80;;
23561;SDS011;11959;49.418;8.728;2022-12-18T09:56:24;43.78;;;20.13;;
23561;SDS011;11959;49.418;8.728;2022-12-18T09:58:55;45.08;;;19.65;;
23561;SDS011;11959;49.418;8.728;2022-12-18T10:01:24;46.80;;;20.58;;
23561;SDS011;11959;49.418;8.728;2022-12-18T10:03:52;43.78;;;20.35;;
23561;SDS011;11959;49.418;8.728;2022-12-18T10:08:56;44.60;;;20.75;;
23561;SDS011;11959;49.418;8.728;2022-12-18T10:14:21;44.03;;;19.70;;
23561;SDS011;11959;49.418;8.728;2022-12-18T10:19:43;42.63;;;19.00;;
23561;SDS011;11959;49.418;8.728;2022-12-18T10:25:34;41.58;;;18.23;;
23561;SDS011;11959;49.418;8.728;2022-12-18T10:28:10;44.10;;;19.27;;
23561;SDS011;11959;49.418;8.728;2022-12-18T10:30:40;47.15;;;20.08;;
23561;SDS011;11959;49.418;8.728;2022-12-18T10:33:11;43.50;;;19.13;;
23561;SDS011;11959;49.418;8.728;2022-12-18T10:35:40;44.00;;;20.35;;
23561;SDS011;11959;49.418;8.728;2022-12-18T10:38:20;38.45;;;18.75;;
23561;SDS011;11959;49.418;8.728;2022-12-18T10:41:03;43.97;;;19.17;;
23561;SDS011;11959;49.418;8.728;2022-12-18T10:48:51;39.95;;;19.45;;
23561;SDS011;11959;49.418;8.728;2022-12-18T10:51:35;44.38;;;19.38;;
23561;SDS011;11959;49.418;8.728;2022-12-18T10:54:07;49.15;;;21.52;;
23561;SDS011;11959;49.418;8.728;2022-12-18T10:56:47;45.22;;;18.90;;
23561;SDS011;11959;49.418;8.728;2022-12-18T10:59:13;43.65;;;19.65;;
23561;SDS011;11959;49.418;8.728;2022-12-18T11:06:55;44.97;;;20.10;;
23561;SDS011;11959;49.418;8.728;2022-12-18T11:09:22;39.33;;;18.15;;
23561;SDS011;11959;49.418;8.728;2022-12-18T11:11:53;43.60;;;19.33;;
23561;SDS011;11959;49.418;8.728;2022-12-18T11:14:34;41.25;;;19.63;;
23561;SDS011;11959;49.418;8.728;2022-12-18T11:17:17;46.60;;;20.40;;
23561;SDS011;11959;49.418;8.728;2022-12-18T11:19:44;42.92;;;18.95;;
23561;SDS011;11959;49.418;8.728;2022-12-18T11:22:20;44.10;;;19.95;;
23561;SDS011;11959;49.418;8.728;2022-12-18T11:27:24;46.92;;;19.02;;
23561;SDS011;11959;49.418;8.728;2022-12-18T11:29:50;44.70;;;19.33;;
23561;SDS011;11959;49.418;8.728;2022-12-18T11:34:59;47.20;;;20.52;;
23561;SDS011;11959;49.418;8.728;2022-12-18T11:37:29;34.00;;;15.27;;
23561;SDS011;11959;49.418;8.728;2022-12-18T11:39:59;40.70;;;19.23;;
23561;SDS011;11959;49.418;8.728;2022-12-18T11:45:29;46.72;;;20.30;;
23561;SDS011;11959;49.418;8.728;2022-12-18T11:50:40;43.17;;;20.63;;
23561;SDS011;11959;49.418;8.728;2022-12-18T11:53:10;43.15;;;20.08;;
23561;SDS011;11959;49.418;8.728;2022-12-18T12:01:05;44.40;;;18.45;;
23561;SDS011;11959;49.418;8.728;2022-12-18T12:03:45;44.13;;;19.27;;
23561;SDS011;11959;49.418;8.728;2022-12-18T12:16:46;43.00;;;18.92;;
23561;SDS011;11959;49.418;8.728;2022-12-18T12:30:41;43.10;;;19.20;;
23561;SDS011;11959;49.418;8.728;2022-12-18T12:33:24;38.35;;;18.15;;
23561;SDS011;11959;49.418;8.728;2022-12-18T12:41:05;40.67;;;19.50;;
23561;SDS011;11959;49.418;8.728;2022-12-18T12:43:55;44.97;;;19.75;;
23561;SDS011;11959;49.418;8.728;2022-12-18T12:46:23;45.10;;;20.55;;
23561;SDS011;11959;49.418;8.728;2022-12-18T12:51:38;45.55;;;20.15;;
23561;SDS011;11959;49.418;8.728;2022-12-18T12:54:10;40.33;;;19.25;;
23561;SDS011;11959;49.418;8.728;2022-12-18T12:59:25;45.08;;;20.48;;
23561;SDS011;11959;49.418;8.728;2022-12-18T13:02:34;45.47;;;19.65;;
23561;SDS011;11959;49.418;8.728;2022-12-18T13:07:57;46.25;;;20.45;;
23561;SDS011;11959;49.418;8.728;2022-12-18T13:10:31;43.15;;;18.83;;
23561;SDS011;11959;49.418;8.728;2022-12-18T13:20:36;45.35;;;20.23;;
23561;SDS011;11959;49.418;8.728;2022-12-18T13:36:41;42.03;;;20.85;;
23561;SDS011;11959;49.418;8.728;2022-12-18T13:39:11;40.72;;;19.10;;
23561;SDS011;11959;49.418;8.728;2022-12-18T13:44:36;46.15;;;20.63;;
23561;SDS011;11959;49.418;8.728;2022-12-18T13:47:26;45.10;;;20.00;;
23561;SDS011;11959;49.418;8.728;2022-12-18T13:50:21;45.55;;;19.92;;
23561;SDS011;11959;49.418;8.728;2022-12-18T13:52:49;46.85;;;19.73;;
23561;SDS011;11959;49.418;8.728;2022-12-18T13:55:16;42.08;;;19.38;;
23561;SDS011;11959;49.418;8.728;2022-12-18T13:57:44;44.70;;;19.00;;
23561;SDS011;11959;49.418;8.728;2022-12-18T14:00:24;42.92;;;19.60;;
23561;SDS011;11959;49.418;8.728;2022-12-18T14:02:54;42.95;;;18.90;;
23561;SDS011;11959;49.418;8.728;2022-12-18T14:05:25;43.63;;;18.38;;
23561;SDS011;11959;49.418;8.728;2022-12-18T14:07:58;41.05;;;19.27;;
23561;SDS011;11959;49.418;8.728;2022-12-18T14:10:30;41.25;;;18.88;;
23561;SDS011;11959;49.418;8.728;2022-12-18T14:13:05;42.38;;;19.13;;
23561;SDS011;11959;49.418;8.728;2022-12-18T14:18:00;43.88;;;19.67;;
23561;SDS011;11959;49.418;8.728;2022-12-18T14:20:39;43.63;;;20.08;;
23561;SDS011;11959;49.418;8.728;2022-12-18T14:25:57;46.47;;;19.27;;
23561;SDS011;11959;49.418;8.728;2022-12-18T14:28:23;43.47;;;19.30;;
23561;SDS011;11959;49.418;8.728;2022-12-18T14:30:49;45.22;;;20.30;;
23561;SDS011;11959;49.418;8.728;2022-12-18T14:33:16;41.15;;;18.20;;
23561;SDS011;11959;49.418;8.728;2022-12-18T14:36:03;43.92;;;19.40;;
23561;SDS011;11959;49.418;8.728;2022-12-18T14:38:31;44.70;;;17.60;;
23561;SDS011;11959;49.418;8.728;2022-12-18T14:41:05;44.65;;;19.45;;
23561;SDS011;11959;49.418;8.728;2022-12-18T14:43:42;43.17;;;20.05;;
23561;SDS011;11959;49.418;8.728;2022-12-18T14:49:02;44.25;;;20.38;;
23561;SDS011;11959;49.418;8.728;2022-12-18T14:51:30;43.42;;;20.15;;
23561;SDS011;11959;49.418;8.728;2022-12-18T14:53:58;45.65;;;20.40;;
23561;SDS011;11959;49.418;8.728;2022-12-18T14:56:30;44.58;;;20.23;;
23561;SDS011;11959;49.418;8.728;2022-12-18T14:58:58;45.00;;;18.97;;
23561;SDS011;11959;49.418;8.728;2022-12-18T15:01:34;42.95;;;20.60;;
23561;SDS011;11959;49.418;8.728;2022-12-18T15:04:02;38.10;;;18.83;;
23561;SDS011;11959;49.418;8.728;2022-12-18T15:06:34;46.22;;;21.35;;
23561;SDS011;11959;49.418;8.728;2022-12-18T15:09:03;46.30;;;20.85;;
23561;SDS011;11959;49.418;8.728;2022-12-18T15:11:49;46.38;;;19.75;;
23561;SDS011;11959;49.418;8.728;2022-12-18T15:14:38;45.08;;;20.73;;
23561;SDS011;11959;49.418;8.728;2022-12-18T15:17:16;46.20;;;20.67;;
23561;SDS011;11959;49.418;8.728;2022-12-18T15:19:44;47.05;;;20.67;;
23561;SDS011;11959;49.418;8.728;2022-12-18T15:24:48;46.42;;;21.02;;
23561;SDS011;11959;49.418;8.728;2022-12-18T15:27:25;52.15;;;21.77;;
23561;SDS011;11959;49.418;8.728;2022-12-18T15:30:00;49.08;;;21.00;;
23561;SDS011;11959;49.418;8.728;2022-12-18T15:32:25;45.63;;;21.52;;
23561;SDS011;11959;49.418;8.728;2022-12-18T15:35:01;45.88;;;20.33;;
23561;SDS011;11959;49.418;8.728;2022-12-18T15:37:34;43.20;;;20.13;;
23561;SDS011;11959;49.418;8.728;2022-12-18T15:39:59;46.38;;;20.33;;
23561;SDS011;11959;49.418;8.728;2022-12-18T15:42:27;45.28;;;20.52;;
23561;SDS011;11959;49.418;8.728;2022-12-18T15:45:12;49.63;;;20.13;;
23561;SDS011;11959;49.418;8.728;2022-12-18T15:47:38;44.35;;;20.13;;
23561;SDS011;11959;49.418;8.728;2022-12-18T15:50:04;45.97;;;20.52;;
23561;SDS011;11959;49.418;8.728;2022-12-18T15:52:37;44.35;;;20.02;;
23561;SDS011;11959;49.418;8.728;2022-12-18T15:55:13;49.10;;;20.95;;
23561;SDS011;11959;49.418;8.728;2022-12-18T15:57:59;50.55;;;21.40;;
23561;SDS011;11959;49.418;8.728;2022-12-18T16:00:25;46.63;;;21.13;;
23561;SDS011;11959;49.418;8.728;2022-12-18T16:02:51;47.03;;;20.17;;
23561;SDS011;11959;49.418;8.728;2022-12-18T16:05:18;45.33;;;20.48;;
23561;SDS011;11959;49.418;8.728;2022-12-18T16:07:45;46.20;;;20.17;;
23561;SDS011;11959;49.418;8.728;2022-12-18T16:10:11;44.40;;;20.25;;
23561;SDS011;11959;49.418;8.728;2022-12-18T16:12:37;47.83;;;20.25;;
23561;SDS011;11959;49.418;8.728;2022-12-18T16:15:03;47.33;;;20.38;;
23561;SDS011;11959;49.418;8.728;2022-12-18T16:17:29;48.60;;;22.20;;
23561;SDS011;11959;49.418;8.728;2022-12-18T16:19:55;42.22;;;19.35;;
23561;SDS011;11959;49.418;8.728;2022-12-18T16:22:22;49.10;;;21.23;;
23561;SDS011;11959;49.418;8.728;2022-12-18T16:24:50;45.10;;;19.55;;
23561;SDS011;11959;49.418;8.728;2022-12-18T16:27:16;48.65;;;20.70;;
23561;SDS011;11959;49.418;8.728;2022-12-18T16:29:42;46.83;;;21.05;;
23561;SDS011;11959;49.418;8.728;2022-12-18T16:32:08;52.30;;;20.20;;
23561;SDS011;11959;49.418;8.728;2022-12-18T16:34:40;44.88;;;19.85;;
23561;SDS011;11959;49.418;8.728;2022-12-18T16:37:07;46.78;;;20.70;;
23561;SDS011;11959;49.418;8.728;2022-12-18T16:39:34;46.47;;;20.42;;
23561;SDS011;11959;49.418;8.728;2022-12-18T16:42:02;51.80;;;22.67;;
23561;SDS011;11959;49.418;8.728;2022-12-18T16:44:34;47.25;;;21.92;;
23561;SDS011;11959;49.418;8.728;2022-12-18T16:47:00;47.90;;;22.67;;
23561;SDS011;11959;49.418;8.728;2022-12-18T16:49:27;46.50;;;21.08;;